Accueil
METAR-TAF:

METAR-TAF

Aéroports :

Aéroport de Pau-Pyrénées

Pau, France

latitude: 43-23N, longitude: 000-25W, altitude: 188 m

Observation

Le bulletin a été fait il y a 13 minutes, à 03:00 UTC
Vent 6 kt de sud/sud-ouest
Température 17°C
Humidité 94%
Pression 1014 hPa
Visibilité 10 km ou plus

METAR: LFBP 060300Z AUTO 20006KT 9999 OVC025/// 17/16 Q1014 NOSIG

Heure: 05:13 (03:13 UTC)

Prévision

Le bulletin a été fait il y a 4 heures et 13 minutes, à 23:00 UTC
Prévision valable du 06 à 00 UTC au 06 à 24 UTC
Vent 5 kt de ouest
Visibilité 10 km ou plus
Ciel couvert à une hauteur de 5000 ft
Temporairement
du 06 à 12 UTC au 06 à 22 UTC
Vent 10 kt de nord

TAF: LFBP 052300Z 0600/0624 26005KT 9999 OVC050 TEMPO 0612/0622 36010KT

Observations et prévisions météorologiques de plus de 4000 aéroports (messages METAR et TAF).

Les stations disponibles sont représentées par des disques jaunes et rouges sur la carte.

Passer la souris dessus pour voir le nom de la station.

Cliquer dessus pour voir les observations et prévisions météorologiques.

Pour changer de carte: cliquez sur les boutons verts avec une croix noire pour zoomer, sur le bouton vert avec un tiret pour effectuer un zoom arrière, ou sur les flèches vertes pour les cartes adjacentes.


METAR-TAF: